Atmore, AL

2:49 AM CDT on October 25, 2014 (GMT -0500)
Nokomis | Change Station
CLOSE
Current Station
Personal Weather Station
Location: Atmore, AL
Elevation: 269 ft
Nearby Weather Stations

Elev 269 ft 31.03 °N, 87.59 °W | Updated 1 second ago

Clear
Clear
44.1 °F
Feels Like 44 °F
N
0.0
Wind Variable Wind from NE
Gusts 0.0 mph

Today
High -- | Low -- °F
--% Chance of Precip.
Yesterday
High -- | Low -- °F
Precip. -- in
6:59 AM 6:07 PM
New Moon, 2% visible
Pressure 30.02 in
Visibility 10.0 miles
Clouds Clear
Windchill 44 °F
Dew Point 42 °F
Humidity 91%
Rainfall 0.00 in
Snow Depth Not available.
UV 0 out of 12
Pollen 3.30 out of 12
Air Quality Not available.
Flu Activity Sporadic
METAR KNSE 250656Z AUTO 33004KT 10SM CLR 12/07 A3006 RMK AO2 SLP165 T01170067 $

More Conditions Fewer Conditions

Pressure 30.02 in
Visibility 10.0 miles
Clouds Clear
Windchill 44 °F
Dew Point 42 °F
Humidity 91%
Rainfall 0.00 in
Snow Depth Not available.
UV 0 out of 12
Pollen 3.30 out of 12
Air Quality Not available.
Flu Activity Sporadic
METAR KNSE 250656Z AUTO 33004KT 10SM CLR 12/07 A3006 RMK AO2 SLP165 T01170067 $

More Conditions Fewer Conditions

10-Day Weather Forecast

Almanac

Astronomy

Oct. 25, 2014 Rise Set
Actual Time 6:59 AM CDT 6:07 PM CDT
Civil Twilight 6:35 AM CDT 6:32 PM CDT
Nautical Twilight 6:06 AM CDT 7:00 PM CDT
Astronomical Twilight 5:38 AM CDT 7:28 PM CDT
Moon 8:33 AM CDT 7:36 PM CDT
Length of Visible Light 11h 57m
Length of Day
11h 07m
Tomorrow will be 1m 44s shorter.
New Moon, 2% of the Moon is Illuminated
Today
New Moon
Oct 30
First Quarter
Nov 6
Full
Nov 14
Last Quarter
Nov 22
New

Today's Extremes

State Highs State Lows

Community

WunderPhotos

Upload Photos

1,764,791 photos uploaded!

Nearby

Snow Depth

Station Depth Elevation
No new snow has been reported.

Earthquake Activity

City Distance Mag. Time & Date
No recent earthquake activity has been reported nearby.
Minimum magnitude displayed is 2.5.

Coastal Water Temperatures

Place Temperature
Mobile State Docks, AL 75.0 °F
Coast Guard Sector Mobile, AL 73.9 °F

Nearby Weather Stations